Time;durP1;ratioP1;P1;durP2;ratioP2;P2;SDS_P1;SDS_P2;PMS_P1;PMS_P2;Temp;Humidity;BMP_temperature;BMP_pressure;BME280_temperature;BME280_humidity;BME280_pressure;Samples;Min_cycle;Max_cycle;Signal;HPM_P1;HPM_P2
2023/12/06 00:00:04;;;;;;;14.30;9.13;;;2.20;99.10;;;;;;1898899;75;21333;-65
2023/12/06 00:02:34;;;;;;;19.37;9.60;;;2.20;99.10;;;;;;1898820;75;21286;-65
2023/12/06 00:05:03;;;;;;;7.42;5.30;;;2.20;99.10;;;;;;1898988;75;21318;-64
2023/12/06 00:07:33;;;;;;;11.63;7.08;;;2.20;99.30;;;;;;1899038;75;21340;-65
2023/12/06 00:10:02;;;;;;;18.45;9.98;;;2.20;99.00;;;;;;1899063;75;21196;-64
2023/12/06 00:12:31;;;;;;;14.13;10.08;;;2.30;98.90;;;;;;1898958;75;21218;-65
2023/12/06 00:15:00;;;;;;;6.83;5.20;;;2.30;98.90;;;;;;1898970;75;21413;-65
2023/12/06 00:17:30;;;;;;;6.72;5.50;;;2.30;98.90;;;;;;1898838;75;21398;-65
2023/12/06 00:19:59;;;;;;;23.07;12.50;;;2.30;99.00;;;;;;1898933;75;21198;-65
2023/12/06 00:22:28;;;;;;;20.72;10.00;;;2.30;99.00;;;;;;1898952;75;21361;-65
2023/12/06 00:24:57;;;;;;;11.80;5.92;;;2.30;98.90;;;;;;1899055;75;21159;-65
2023/12/06 00:27:27;;;;;;;21.00;11.83;;;2.30;98.90;;;;;;1899058;75;21153;-65
2023/12/06 00:29:56;;;;;;;16.87;9.80;;;2.30;99.00;;;;;;1898876;75;21324;-65
2023/12/06 00:32:25;;;;;;;26.27;12.33;;;2.30;99.10;;;;;;1899117;75;21355;-64
2023/12/06 00:34:54;;;;;;;15.30;7.65;;;2.20;99.00;;;;;;1899153;75;21234;-65
2023/12/06 00:37:23;;;;;;;13.62;7.75;;;2.20;99.10;;;;;;1898969;75;21425;-65
2023/12/06 00:39:52;;;;;;;11.88;6.83;;;2.20;99.10;;;;;;1898996;75;21223;-64
2023/12/06 00:42:22;;;;;;;19.50;9.10;;;2.20;99.20;;;;;;1898965;75;21435;-64
2023/12/06 00:44:51;;;;;;;21.42;10.35;;;2.20;99.20;;;;;;1899012;75;21222;-64
2023/12/06 00:47:20;;;;;;;16.27;8.00;;;2.20;99.30;;;;;;1898993;75;21267;-65
2023/12/06 00:49:49;;;;;;;26.70;12.07;;;2.10;99.40;;;;;;1898984;75;21278;-64
2023/12/06 00:52:18;;;;;;;16.95;8.15;;;2.20;99.50;;;;;;1898980;75;21328;-65
2023/12/06 00:54:48;;;;;;;10.93;6.72;;;2.10;99.50;;;;;;1898907;75;21285;-65
2023/12/06 00:57:17;;;;;;;16.82;9.05;;;2.10;99.60;;;;;;1898831;75;21337;-65
2023/12/06 00:59:47;;;;;;;20.97;10.78;;;2.10;99.60;;;;;;1899148;75;21375;-65
2023/12/06 01:02:16;;;;;;;27.55;13.98;;;2.10;99.50;;;;;;1899062;75;21219;-64
2023/12/06 01:04:46;;;;;;;18.10;8.65;;;2.10;99.40;;;;;;1898967;75;21267;-65
2023/12/06 01:07:15;;;;;;;18.95;10.25;;;2.20;99.40;;;;;;1898996;75;21275;-65
2023/12/06 01:09:45;;;;;;;11.83;7.75;;;2.20;99.30;;;;;;1899041;75;21306;-65
2023/12/06 01:12:14;;;;;;;12.65;7.92;;;2.20;99.30;;;;;;1899132;75;21218;-65
2023/12/06 01:14:44;;;;;;;24.67;11.43;;;2.20;99.40;;;;;;1899000;75;21577;-64
2023/12/06 01:17:13;;;;;;;11.65;6.65;;;2.20;99.40;;;;;;1899079;75;21092;-65
2023/12/06 01:19:42;;;;;;;24.45;8.73;;;2.20;99.40;;;;;;1899185;75;21222;-65
2023/12/06 01:22:12;;;;;;;18.60;9.28;;;2.10;99.40;;;;;;1898955;75;21322;-65
2023/12/06 01:24:41;;;;;;;20.30;10.30;;;2.10;99.50;;;;;;1898899;75;21251;-62
2023/12/06 01:27:10;;;;;;;19.52;11.08;;;2.10;99.50;;;;;;1899098;75;21394;-65
2023/12/06 01:29:40;;;;;;;8.48;5.72;;;2.10;99.50;;;;;;1898934;75;21345;-65
2023/12/06 01:32:08;;;;;;;14.43;9.50;;;2.20;99.60;;;;;;1898934;75;21779;-65
2023/12/06 01:34:38;;;;;;;16.50;10.20;;;2.10;99.60;;;;;;1898887;75;21344;-65
2023/12/06 01:37:07;;;;;;;14.70;7.62;;;2.20;99.70;;;;;;1898966;75;21249;-64
2023/12/06 01:39:36;;;;;;;18.30;9.50;;;2.10;99.70;;;;;;1898949;75;21251;-65
2023/12/06 01:42:05;;;;;;;19.25;11.03;;;2.10;99.80;;;;;;1899030;75;21446;-65
2023/12/06 01:44:36;;;;;;;9.58;5.30;;;2.10;99.70;;;;;;1829633;76;21774;-64
2023/12/06 01:47:07;;;;;;;23.25;10.63;;;2.10;99.80;;;;;;1832870;78;21403;-64
2023/12/06 01:49:36;;;;;;;10.60;7.12;;;2.10;99.80;;;;;;1833002;78;21337;-63
2023/12/06 01:52:06;;;;;;;13.00;7.72;;;2.10;99.80;;;;;;1833035;78;21346;-64
2023/12/06 01:54:35;;;;;;;22.45;11.68;;;2.10;99.90;;;;;;1833033;78;21284;-64
2023/12/06 01:57:05;;;;;;;17.30;7.30;;;2.10;99.90;;;;;;1833018;78;21341;-63
2023/12/06 01:59:34;;;;;;;17.98;5.25;;;2.10;99.90;;;;;;1833003;78;21199;-64
2023/12/06 02:02:04;;;;;;;11.38;8.25;;;2.10;99.90;;;;;;1832909;78;21403;-64
2023/12/06 02:04:34;;;;;;;23.52;10.93;;;2.10;99.90;;;;;;1833022;78;21268;-63
2023/12/06 02:07:04;;;;;;;17.45;8.40;;;2.10;99.90;;;;;;1832893;78;21337;-64
2023/12/06 02:09:33;;;;;;;24.75;11.83;;;2.10;99.90;;;;;;1832930;78;21206;-64
2023/12/06 02:12:03;;;;;;;12.28;6.90;;;2.20;99.90;;;;;;1832956;78;21276;-64
2023/12/06 02:14:34;;;;;;;21.48;13.38;;;2.20;99.90;;;;;;1833018;78;21435;-64
2023/12/06 02:17:04;;;;;;;12.40;7.78;;;2.20;99.60;;;;;;1833024;78;21734;-64
2023/12/06 02:19:34;;;;;;;30.68;16.50;;;2.10;99.40;;;;;;1832981;78;21378;-64
2023/12/06 02:22:03;;;;;;;21.20;13.35;;;2.10;99.30;;;;;;1832904;78;21003;-64
2023/12/06 02:24:33;;;;;;;17.73;9.53;;;2.10;99.40;;;;;;1833031;78;21227;-64
2023/12/06 02:27:02;;;;;;;14.03;8.90;;;2.10;99.40;;;;;;1832934;78;21350;-64
2023/12/06 02:29:31;;;;;;;14.23;9.00;;;2.00;99.30;;;;;;1833004;78;21296;-64
2023/12/06 02:32:00;;;;;;;19.17;10.93;;;2.00;99.40;;;;;;1832932;78;21354;-64
2023/12/06 02:34:30;;;;;;;11.05;6.95;;;2.00;99.50;;;;;;1832860;78;21565;-64
2023/12/06 02:37:02;;;;;;;17.00;8.88;;;2.00;99.50;;;;;;1832924;78;21405;-64
2023/12/06 02:39:33;;;;;;;29.40;12.63;;;1.90;99.60;;;;;;1832988;78;21342;-64
2023/12/06 02:42:03;;;;;;;38.95;16.62;;;2.00;99.60;;;;;;1832888;78;21311;-64
2023/12/06 02:44:32;;;;;;;22.75;13.18;;;2.00;99.60;;;;;;1837727;76;21308;-64
2023/12/06 02:47:01;;;;;;;17.48;9.43;;;2.00;99.60;;;;;;1840891;78;21349;-64
2023/12/06 02:49:30;;;;;;;19.07;11.12;;;2.00;99.70;;;;;;1840762;78;21422;-64
2023/12/06 02:52:00;;;;;;;16.80;9.30;;;2.00;99.60;;;;;;1840807;78;21226;-64
2023/12/06 02:54:29;;;;;;;22.05;11.70;;;2.00;99.60;;;;;;1840786;78;21456;-64
2023/12/06 02:56:59;;;;;;;12.70;7.60;;;2.00;99.60;;;;;;1840791;78;21267;-64
2023/12/06 02:59:28;;;;;;;18.60;10.48;;;2.00;99.60;;;;;;1840851;78;21327;-64
2023/12/06 03:01:57;;;;;;;31.65;13.72;;;2.00;99.80;;;;;;1840845;78;21350;-64
2023/12/06 03:04:27;;;;;;;10.10;6.30;;;2.00;99.80;;;;;;1840698;78;21331;-64
2023/12/06 03:06:56;;;;;;;32.35;16.82;;;2.00;99.90;;;;;;1840832;78;21165;-64
2023/12/06 03:09:25;;;;;;;12.88;7.60;;;2.00;99.80;;;;;;1840767;78;21349;-64
2023/12/06 03:11:54;;;;;;;28.35;13.30;;;2.00;99.90;;;;;;1840788;78;21476;-64
2023/12/06 03:14:24;;;;;;;20.85;11.40;;;2.00;99.90;;;;;;1840738;78;21284;-64
2023/12/06 03:16:53;;;;;;;34.67;16.75;;;2.10;99.90;;;;;;1840786;78;21161;-64
2023/12/06 03:19:22;;;;;;;12.20;6.50;;;2.10;99.70;;;;;;1840790;78;21254;-64
2023/12/06 03:21:51;;;;;;;25.10;11.63;;;2.10;99.80;;;;;;1840698;78;21348;-64
2023/12/06 03:24:21;;;;;;;19.92;10.78;;;2.20;99.80;;;;;;1840864;78;21338;-64
2023/12/06 03:26:50;;;;;;;24.75;12.45;;;2.20;99.80;;;;;;1840776;78;21262;-64
2023/12/06 03:29:19;;;;;;;37.42;15.58;;;2.20;99.90;;;;;;1840675;78;21246;-64
2023/12/06 03:31:48;;;;;;;18.37;9.98;;;2.20;99.60;;;;;;1840889;78;21370;-64
2023/12/06 03:34:17;;;;;;;21.93;11.00;;;2.20;99.60;;;;;;1840857;78;21222;-64
2023/12/06 03:36:46;;;;;;;31.48;16.32;;;2.30;99.60;;;;;;1840812;78;21157;-64
2023/12/06 03:39:16;;;;;;;24.95;13.03;;;2.30;99.50;;;;;;1840710;78;21484;-64
2023/12/06 03:41:45;;;;;;;16.17;7.47;;;2.30;99.60;;;;;;1840657;78;21286;-64
2023/12/06 03:44:14;;;;;;;22.30;11.93;;;2.30;99.70;;;;;;1844711;77;21433;-64
2023/12/06 03:46:44;;;;;;;26.30;13.90;;;2.30;99.70;;;;;;1858965;77;21414;-64
2023/12/06 03:49:13;;;;;;;26.68;12.23;;;2.30;99.80;;;;;;1858984;77;21295;-64
2023/12/06 03:51:42;;;;;;;20.92;11.78;;;2.30;99.80;;;;;;1858835;77;21307;-64
2023/12/06 03:54:11;;;;;;;31.23;13.68;;;2.30;99.80;;;;;;1858941;77;21341;-64
2023/12/06 03:56:41;;;;;;;24.82;11.65;;;2.40;99.80;;;;;;1858826;77;21279;-64
2023/12/06 03:59:10;;;;;;;16.95;9.88;;;2.40;99.70;;;;;;1858794;77;21326;-64
2023/12/06 04:01:41;;;;;;;10.23;6.37;;;2.40;99.70;;;;;;1858791;77;21352;-64
2023/12/06 04:04:12;;;;;;;18.77;9.00;;;2.40;99.70;;;;;;1858932;77;21431;-64
2023/12/06 04:06:41;;;;;;;21.75;10.40;;;2.40;99.80;;;;;;1858874;77;21397;-64
2023/12/06 04:09:11;;;;;;;22.67;11.93;;;2.40;99.90;;;;;;1858965;76;21713;-64
2023/12/06 04:11:40;;;;;;;20.52;11.85;;;2.50;99.70;;;;;;1858874;77;21349;-64
2023/12/06 04:14:09;;;;;;;28.73;14.15;;;2.50;99.90;;;;;;1858795;77;21342;-64
2023/12/06 04:16:38;;;;;;;15.15;9.15;;;2.50;99.90;;;;;;1858878;77;21218;-64
2023/12/06 04:19:08;;;;;;;26.93;11.48;;;2.50;99.70;;;;;;1858963;77;21360;-64
2023/12/06 04:21:37;;;;;;;27.75;13.03;;;2.50;99.90;;;;;;1858762;76;21430;-64
2023/12/06 04:24:07;;;;;;;23.40;11.38;;;2.50;99.70;;;;;;1858880;76;21261;-64
2023/12/06 04:26:36;;;;;;;22.15;11.03;;;2.60;99.70;;;;;;1858876;77;21318;-64
2023/12/06 04:29:05;;;;;;;20.10;10.13;;;2.60;99.90;;;;;;1858797;77;21209;-64
2023/12/06 04:31:35;;;;;;;22.58;13.93;;;2.60;99.80;;;;;;1858790;77;21918;-64
2023/12/06 04:34:04;;;;;;;9.05;4.78;;;2.60;99.90;;;;;;1858891;77;21430;-64
2023/12/06 04:36:33;;;;;;;17.50;6.75;;;2.60;99.90;;;;;;1858817;77;21729;-64
2023/12/06 04:39:02;;;;;;;10.80;5.70;;;2.60;99.80;;;;;;1858883;77;21361;-64
2023/12/06 04:41:32;;;;;;;24.37;10.75;;;2.60;99.90;;;;;;1858816;77;21410;-64
2023/12/06 04:44:02;;;;;;;10.72;6.50;;;2.60;99.90;;;;;;1858841;77;21210;-64
2023/12/06 04:46:31;;;;;;;17.73;8.98;;;2.60;99.80;;;;;;1858769;77;21241;-64
2023/12/06 04:49:00;;;;;;;14.43;7.05;;;2.60;99.90;;;;;;1858818;76;21356;-64
2023/12/06 04:51:30;;;;;;;9.50;6.08;;;2.60;99.90;;;;;;1858866;77;21269;-64
2023/12/06 04:53:59;;;;;;;17.77;8.80;;;2.60;99.90;;;;;;1858941;77;21221;-64
2023/12/06 04:56:28;;;;;;;7.47;4.90;;;2.50;99.90;;;;;;1858842;76;21250;-64
2023/12/06 04:58:58;;;;;;;10.13;6.25;;;2.50;99.90;;;;;;1858735;77;21321;-64
2023/12/06 05:01:27;;;;;;;18.60;9.60;;;2.50;99.90;;;;;;1858779;77;21279;-64
2023/12/06 05:03:56;;;;;;;20.65;12.00;;;2.50;99.90;;;;;;1858763;77;21344;-64
2023/12/06 05:06:25;;;;;;;8.70;5.62;;;2.50;99.90;;;;;;1858885;77;21271;-64
2023/12/06 05:08:55;;;;;;;18.48;8.80;;;2.50;99.90;;;;;;1858740;77;21345;-64
2023/12/06 05:11:24;;;;;;;10.00;7.37;;;2.50;99.90;;;;;;1858757;77;21344;-64
2023/12/06 05:13:53;;;;;;;17.12;9.53;;;2.50;99.90;;;;;;1858904;76;21226;-64
2023/12/06 05:16:22;;;;;;;9.63;6.20;;;2.50;99.90;;;;;;1858922;77;21103;-64
2023/12/06 05:18:52;;;;;;;8.03;5.58;;;2.60;99.90;;;;;;1858827;77;21431;-64
2023/12/06 05:21:21;;;;;;;10.98;6.60;;;2.60;99.90;;;;;;1858709;77;21303;-64
2023/12/06 05:23:50;;;;;;;18.23;9.38;;;2.60;99.90;;;;;;1858741;76;21419;-64
2023/12/06 05:26:20;;;;;;;21.20;10.60;;;2.60;99.90;;;;;;1858902;77;21292;-64
2023/12/06 05:28:49;;;;;;;19.73;9.93;;;2.70;99.90;;;;;;1858941;77;21742;-64
2023/12/06 05:31:18;;;;;;;21.90;11.73;;;2.70;99.90;;;;;;1858876;77;21410;-64
2023/12/06 05:33:48;;;;;;;11.10;7.83;;;2.70;99.90;;;;;;1858860;76;21226;-64
2023/12/06 05:36:18;;;;;;;13.18;6.25;;;2.70;99.90;;;;;;1858867;76;21402;-64
2023/12/06 05:38:47;;;;;;;19.75;9.93;;;2.70;99.90;;;;;;1859015;77;21218;-64
2023/12/06 05:41:16;;;;;;;10.45;6.62;;;2.80;99.90;;;;;;1858842;77;21283;-64
2023/12/06 05:43:46;;;;;;;18.75;9.55;;;2.80;99.90;;;;;;1858834;77;21414;-64
2023/12/06 05:46:15;;;;;;;16.25;8.70;;;2.80;99.90;;;;;;1858940;77;21368;-64
2023/12/06 05:48:44;;;;;;;22.48;10.35;;;2.80;99.90;;;;;;1858979;76;21354;-64
2023/12/06 05:51:14;;;;;;;15.90;8.05;;;2.80;99.90;;;;;;1858776;77;21267;-64
2023/12/06 05:53:43;;;;;;;25.48;10.65;;;2.90;99.80;;;;;;1858864;77;21354;-64
2023/12/06 05:56:12;;;;;;;13.55;8.00;;;2.90;99.90;;;;;;1858854;77;21361;-64
2023/12/06 05:58:41;;;;;;;20.20;9.83;;;2.90;99.80;;;;;;1858969;77;21819;-64
2023/12/06 06:01:10;;;;;;;10.93;6.37;;;2.90;99.90;;;;;;1858853;77;21162;-64
2023/12/06 06:03:40;;;;;;;13.98;7.25;;;2.90;99.90;;;;;;1858939;76;21259;-64
2023/12/06 06:06:09;;;;;;;13.38;8.10;;;2.90;99.90;;;;;;1858892;76;21271;-64
2023/12/06 06:08:38;;;;;;;11.88;5.83;;;2.90;99.90;;;;;;1858914;77;21324;-64
2023/12/06 06:11:08;;;;;;;16.10;6.55;;;2.90;99.90;;;;;;1859027;77;21352;-64
2023/12/06 06:13:37;;;;;;;19.00;8.83;;;3.00;99.90;;;;;;1858980;77;21475;-64
2023/12/06 06:16:07;;;;;;;18.25;8.13;;;2.90;99.80;;;;;;1858854;76;21263;-64
2023/12/06 06:18:36;;;;;;;13.08;6.15;;;3.00;99.90;;;;;;1858993;77;21383;-64
2023/12/06 06:21:05;;;;;;;19.57;9.83;;;3.00;99.90;;;;;;1858838;77;21283;-64
2023/12/06 06:23:35;;;;;;;21.85;11.38;;;3.00;99.80;;;;;;1858881;76;21227;-63
2023/12/06 06:26:04;;;;;;;23.87;11.50;;;3.00;99.80;;;;;;1858871;77;21267;-64
2023/12/06 06:28:33;;;;;;;17.50;8.70;;;3.00;99.80;;;;;;1858889;76;21345;-63
2023/12/06 06:31:02;;;;;;;22.05;10.55;;;3.10;99.80;;;;;;1858910;77;21156;-63
2023/12/06 06:33:32;;;;;;;16.07;10.13;;;3.10;99.60;;;;;;1858994;77;21197;-64
2023/12/06 06:36:01;;;;;;;9.65;5.78;;;3.10;99.70;;;;;;1858892;77;21281;-63
2023/12/06 06:38:30;;;;;;;10.90;4.95;;;3.10;99.70;;;;;;1858860;77;21317;-64
2023/12/06 06:41:00;;;;;;;15.28;8.15;;;3.10;99.80;;;;;;1858770;76;21226;-64
2023/12/06 06:43:29;;;;;;;13.05;6.92;;;3.10;99.80;;;;;;1858783;76;21338;-63
2023/12/06 06:45:58;;;;;;;12.68;6.72;;;3.10;99.90;;;;;;1856669;77;21308;-64
2023/12/06 06:48:27;;;;;;;17.62;8.95;;;3.10;99.90;;;;;;1840861;78;21295;-63
2023/12/06 06:50:57;;;;;;;17.67;8.68;;;3.10;99.90;;;;;;1840766;78;21203;-63
2023/12/06 06:53:26;;;;;;;10.48;5.53;;;3.10;99.90;;;;;;1840740;78;21345;-64
2023/12/06 06:55:55;;;;;;;19.07;10.63;;;3.10;99.90;;;;;;1840759;78;21402;-64
2023/12/06 06:58:24;;;;;;;22.00;9.65;;;3.10;99.90;;;;;;1840810;78;21345;-64
2023/12/06 07:00:54;;;;;;;13.75;7.72;;;3.10;99.90;;;;;;1840719;78;21206;-63
2023/12/06 07:03:23;;;;;;;11.00;6.97;;;3.10;99.90;;;;;;1840688;78;21223;-63
2023/12/06 07:05:52;;;;;;;19.12;10.95;;;3.20;99.90;;;;;;1840706;78;21378;-63
2023/12/06 07:08:22;;;;;;;10.65;6.25;;;3.20;99.90;;;;;;1840966;78;21223;-63
2023/12/06 07:10:51;;;;;;;23.77;11.78;;;3.20;99.90;;;;;;1840828;78;21358;-63
2023/12/06 07:13:22;;;;;;;15.43;8.05;;;3.20;99.90;;;;;;1840729;78;21392;-63
2023/12/06 07:15:51;;;;;;;21.90;9.73;;;3.20;99.90;;;;;;1840757;78;21396;-63
2023/12/06 07:18:20;;;;;;;9.38;6.22;;;3.20;99.90;;;;;;1840864;78;21283;-64
2023/12/06 07:20:50;;;;;;;15.63;7.90;;;3.20;99.90;;;;;;1840799;78;21304;-64
2023/12/06 07:23:19;;;;;;;21.23;11.00;;;3.20;99.90;;;;;;1840680;78;21470;-64
2023/12/06 07:25:48;;;;;;;22.17;11.12;;;3.20;99.90;;;;;;1840769;78;21422;-64
2023/12/06 07:28:18;;;;;;;13.78;7.92;;;3.20;99.90;;;;;;1840797;78;21300;-64
2023/12/06 07:30:47;;;;;;;9.23;5.70;;;3.20;99.90;;;;;;1840747;78;21230;-64
2023/12/06 07:33:16;;;;;;;27.82;11.20;;;3.30;99.90;;;;;;1840660;78;21238;-64
2023/12/06 07:35:46;;;;;;;16.67;8.93;;;3.30;99.90;;;;;;1840756;78;21299;-64
2023/12/06 07:38:15;;;;;;;23.92;10.60;;;3.30;99.90;;;;;;1840822;78;21704;-64
2023/12/06 07:40:44;;;;;;;16.02;7.40;;;3.30;99.90;;;;;;1840668;78;21345;-64
2023/12/06 07:43:14;;;;;;;11.35;6.05;;;3.30;99.90;;;;;;1840633;78;21366;-64
2023/12/06 07:45:43;;;;;;;16.95;9.43;;;3.30;99.90;;;;;;1840666;78;21760;-64
2023/12/06 07:48:12;;;;;;;19.65;9.58;;;3.30;99.90;;;;;;1840716;77;21257;-64
2023/12/06 07:50:41;;;;;;;19.90;6.92;;;3.30;99.90;;;;;;1840703;78;21348;-64
2023/12/06 07:53:12;;;;;;;9.48;5.83;;;3.40;99.90;;;;;;1840676;78;21266;-64
2023/12/06 07:55:41;;;;;;;15.72;9.58;;;3.40;99.90;;;;;;1840585;78;21372;-64
2023/12/06 07:58:10;;;;;;;9.35;7.20;;;3.40;99.90;;;;;;1840586;78;21237;-64
2023/12/06 08:00:39;;;;;;;22.65;10.85;;;3.40;99.90;;;;;;1840592;78;21406;-60
2023/12/06 08:03:09;;;;;;;15.05;8.23;;;3.40;99.90;;;;;;1840532;78;21349;-60
2023/12/06 08:05:38;;;;;;;19.17;9.88;;;3.50;99.90;;;;;;1840657;78;21287;-60
2023/12/06 08:08:07;;;;;;;11.60;6.65;;;3.50;99.90;;;;;;1840715;78;21161;-60
2023/12/06 08:10:37;;;;;;;22.52;10.72;;;3.60;99.90;;;;;;1840784;78;21752;-59
2023/12/06 08:13:06;;;;;;;20.70;10.38;;;3.60;99.90;;;;;;1840654;78;21485;-60
2023/12/06 08:15:35;;;;;;;19.40;8.30;;;3.60;99.90;;;;;;1840840;78;21329;-60
2023/12/06 08:18:06;;;;;;;29.12;8.35;;;3.60;99.90;;;;;;1840771;78;21333;-60
2023/12/06 08:20:35;;;;;;;11.20;7.20;;;3.70;99.90;;;;;;1840693;78;21225;-61
2023/12/06 08:23:06;;;;;;;17.40;8.85;;;3.70;99.90;;;;;;1840505;78;21295;-62
2023/12/06 08:25:35;;;;;;;17.23;9.53;;;3.70;99.90;;;;;;1840422;78;21323;-61
2023/12/06 08:28:05;;;;;;;21.17;10.15;;;3.80;99.90;;;;;;1840746;78;21215;-58
2023/12/06 08:30:34;;;;;;;14.65;7.45;;;3.70;99.80;;;;;;1833155;78;21445;-58
2023/12/06 08:33:04;;;;;;;11.93;6.42;;;3.80;99.90;;;;;;1825723;78;21370;-61
2023/12/06 08:35:33;;;;;;;17.82;9.28;;;3.80;99.90;;;;;;1814367;79;21412;-59
2023/12/06 08:38:02;;;;;;;19.98;10.10;;;3.80;99.80;;;;;;1817777;78;21319;-59
2023/12/06 08:40:31;;;;;;;21.80;10.53;;;3.90;99.70;;;;;;1820694;78;21281;-59
2023/12/06 08:43:01;;;;;;;17.20;9.20;;;3.90;99.80;;;;;;1814704;78;21780;-59
2023/12/06 08:45:33;;;;;;;12.33;6.65;;;4.00;99.70;;;;;;1828986;78;21335;-58
2023/12/06 08:48:01;;;;;;;4.75;3.92;;;4.00;99.60;;;;;;1828502;76;22025;-59
2023/12/06 08:50:31;;;;;;;6.00;4.70;;;4.00;99.70;;;;;;1828047;78;21349;-58
2023/12/06 08:53:00;;;;;;;18.98;10.48;;;4.00;99.60;;;;;;1819364;78;21151;-59
2023/12/06 08:55:29;;;;;;;12.47;7.70;;;4.00;99.60;;;;;;1822840;78;21691;-59
2023/12/06 08:57:58;;;;;;;9.23;5.22;;;4.00;99.50;;;;;;1818089;78;21199;-59
2023/12/06 09:00:28;;;;;;;9.48;5.17;;;4.10;99.60;;;;;;1827724;78;21365;-59
2023/12/06 09:02:57;;;;;;;7.10;4.92;;;4.10;99.50;;;;;;1829578;78;21354;-59
2023/12/06 09:05:26;;;;;;;9.00;5.35;;;4.10;99.60;;;;;;1812548;79;21538;-62
2023/12/06 09:07:55;;;;;;;14.95;7.42;;;4.10;99.50;;;;;;1826598;78;21157;-62
2023/12/06 09:10:24;;;;;;;13.22;6.17;;;4.10;99.50;;;;;;1828803;78;21327;-61
2023/12/06 09:12:54;;;;;;;7.62;4.97;;;4.10;99.50;;;;;;1828921;78;21356;-61
2023/12/06 09:15:23;;;;;;;9.40;6.08;;;4.10;99.50;;;;;;1823367;78;21843;-62
2023/12/06 09:17:53;;;;;;;9.58;6.20;;;4.10;99.50;;;;;;1818116;78;21322;-61
2023/12/06 09:20:22;;;;;;;11.15;5.42;;;4.10;99.50;;;;;;1818211;78;21438;-61
2023/12/06 09:22:51;;;;;;;13.22;6.90;;;4.20;99.40;;;;;;1829268;78;21368;-60
2023/12/06 09:25:20;;;;;;;13.32;7.85;;;4.20;99.50;;;;;;1835598;77;21420;-57
2023/12/06 09:27:55;;;;;;;14.25;7.83;;;4.20;99.50;;;;;;1827408;78;21254;-60
2023/12/06 09:30:21;;;;;;;16.97;7.33;;;4.30;99.40;;;;;;1835086;78;21315;-60
2023/12/06 09:32:51;;;;;;;11.48;6.58;;;4.40;99.40;;;;;;1836412;78;21348;-59
2023/12/06 09:35:22;;;;;;;11.18;6.15;;;4.60;99.30;;;;;;1832830;78;21078;-59
2023/12/06 09:37:52;;;;;;;10.45;5.62;;;4.70;99.10;;;;;;1829516;78;21166;-63
2023/12/06 09:40:21;;;;;;;7.58;4.45;;;4.80;98.60;;;;;;1832823;78;21163;-60
2023/12/06 09:42:53;;;;;;;9.98;4.17;;;4.90;98.20;;;;;;1837418;78;21096;-63
2023/12/06 09:45:24;;;;;;;12.40;7.78;;;4.90;98.10;;;;;;1835762;78;21276;-63
2023/12/06 09:47:54;;;;;;;9.63;5.30;;;4.70;98.20;;;;;;1834133;76;21316;-62
2023/12/06 09:50:27;;;;;;;11.25;6.22;;;4.60;98.40;;;;;;1855512;77;21252;-62
2023/12/06 09:52:57;;;;;;;12.73;8.15;;;4.50;98.60;;;;;;1853724;77;21661;-63
2023/12/06 09:55:28;;;;;;;16.48;8.53;;;4.50;98.80;;;;;;1858052;77;21336;-62
2023/12/06 09:57:57;;;;;;;8.08;5.08;;;4.40;98.90;;;;;;1858315;77;21287;-59
2023/12/06 10:00:26;;;;;;;13.48;7.30;;;4.40;99.10;;;;;;1858500;77;21091;-59
2023/12/06 10:03:01;;;;;;;18.12;9.13;;;4.40;99.00;;;;;;1858318;77;21087;-62
2023/12/06 10:05:27;;;;;;;12.50;7.08;;;4.40;98.90;;;;;;1856919;77;21353;-60
2023/12/06 10:07:56;;;;;;;23.05;11.12;;;4.40;99.00;;;;;;1858320;77;21209;-60
2023/12/06 10:10:26;;;;;;;14.15;6.92;;;4.50;99.00;;;;;;1858153;77;21172;-60
2023/12/06 10:12:56;;;;;;;12.60;7.87;;;4.50;99.00;;;;;;1858116;77;21305;-59
2023/12/06 10:15:25;;;;;;;16.32;8.25;;;4.60;98.90;;;;;;1858241;77;21156;-60
2023/12/06 10:17:55;;;;;;;12.28;4.92;;;4.60;98.80;;;;;;1857765;77;21710;-59
2023/12/06 10:20:25;;;;;;;14.87;6.42;;;4.60;98.80;;;;;;1857500;77;21462;-60
2023/12/06 10:22:55;;;;;;;16.25;8.58;;;4.50;99.10;;;;;;1858499;77;21344;-60
2023/12/06 10:25:24;;;;;;;16.73;9.63;;;4.50;98.90;;;;;;1858960;77;21267;-60
2023/12/06 10:27:55;;;;;;;13.15;7.25;;;4.50;99.00;;;;;;1858854;77;21276;-60
2023/12/06 10:30:24;;;;;;;15.05;8.05;;;4.50;99.00;;;;;;1858695;77;21737;-60
2023/12/06 10:33:01;;;;;;;16.97;10.20;;;4.40;99.00;;;;;;1858805;77;21321;-58
2023/12/06 10:35:31;;;;;;;15.48;7.60;;;4.40;99.20;;;;;;1853793;77;21423;-59
2023/12/06 10:38:01;;;;;;;14.38;7.33;;;4.40;99.20;;;;;;1855510;77;21218;-59
2023/12/06 10:40:31;;;;;;;12.40;6.10;;;4.50;99.10;;;;;;1851234;77;21419;-58
2023/12/06 10:43:07;;;;;;;10.85;6.83;;;4.50;99.10;;;;;;1848756;77;21200;-60
2023/12/06 10:45:37;;;;;;;11.40;6.60;;;4.60;99.10;;;;;;1848755;77;21672;-58
2023/12/06 10:48:07;;;;;;;16.97;7.95;;;4.60;99.10;;;;;;1848659;77;21195;-58
2023/12/06 10:50:36;;;;;;;11.30;6.60;;;4.60;99.00;;;;;;1848740;77;21248;-59
2023/12/06 10:53:07;;;;;;;13.15;7.67;;;4.60;98.90;;;;;;1848784;77;21795;-60
2023/12/06 10:55:38;;;;;;;12.33;7.83;;;4.60;99.00;;;;;;1848496;77;21342;-59
2023/12/06 10:58:09;;;;;;;13.88;7.80;;;4.60;99.00;;;;;;1848847;77;21196;-59
2023/12/06 11:00:38;;;;;;;12.07;7.15;;;4.70;99.00;;;;;;1848901;77;21239;-60
2023/12/06 11:03:07;;;;;;;11.80;7.30;;;4.70;99.00;;;;;;1848532;77;21174;-58
2023/12/06 11:05:40;;;;;;;14.80;6.75;;;4.70;98.90;;;;;;1848913;77;21288;-60
2023/12/06 11:08:41;;;;;;;15.78;7.92;;;4.70;98.90;;;;;;1849009;77;21252;-64
2023/12/06 11:11:47;;;;;;;15.45;7.78;;;4.70;98.80;;;;;;1848576;77;21807;-62
2023/12/06 11:14:40;;;;;;;13.75;6.97;;;4.70;98.90;;;;;;1857843;77;21806;-59
2023/12/06 11:17:12;;;;;;;11.05;6.37;;;4.70;99.00;;;;;;1820537;76;21310;-69
2023/12/06 11:19:41;;;;;;;10.32;5.62;;;4.70;98.90;;;;;;1856772;77;21238;-60
2023/12/06 11:22:11;;;;;;;16.77;8.30;;;4.70;99.00;;;;;;1858622;77;21227;-60
2023/12/06 11:24:40;;;;;;;14.10;7.97;;;4.80;98.80;;;;;;1858935;77;21305;-60
2023/12/06 11:27:09;;;;;;;12.88;7.65;;;4.70;98.90;;;;;;1858935;76;21259;-60
2023/12/06 11:29:39;;;;;;;11.48;5.72;;;4.80;98.80;;;;;;1858982;77;21184;-60
2023/12/06 11:32:16;;;;;;;8.63;5.37;;;4.80;98.90;;;;;;1858865;77;21284;-60
2023/12/06 11:34:47;;;;;;;8.78;5.58;;;4.70;98.80;;;;;;1858868;76;21188;-60
2023/12/06 11:37:17;;;;;;;12.45;6.33;;;4.70;98.80;;;;;;1857279;77;21668;-60
2023/12/06 11:40:08;;;;;;;10.25;6.42;;;4.70;98.80;;;;;;1858956;77;21286;-60
2023/12/06 11:42:41;;;;;;;11.18;6.15;;;4.70;98.80;;;;;;1858883;77;21214;-60
2023/12/06 11:45:30;;;;;;;15.72;7.58;;;4.70;98.90;;;;;;1859052;77;21226;-60
2023/12/06 11:48:04;;;;;;;8.40;4.92;;;4.70;98.80;;;;;;1858926;77;21279;-60
2023/12/06 11:50:47;;;;;;;9.50;5.80;;;4.70;98.90;;;;;;1858836;76;21397;-60
2023/12/06 11:53:16;;;;;;;7.75;5.05;;;4.70;98.90;;;;;;1858944;77;21271;-60
2023/12/06 11:55:47;;;;;;;11.63;7.10;;;4.70;99.00;;;;;;1858879;77;21380;-59
2023/12/06 11:58:16;;;;;;;10.82;6.55;;;4.70;99.00;;;;;;1859004;76;21717;-60
2023/12/06 12:00:46;;;;;;;10.93;7.85;;;4.70;98.90;;;;;;1858963;77;21539;-60
2023/12/06 12:03:16;;;;;;;13.08;6.87;;;4.80;98.90;;;;;;1858955;77;21291;-60
2023/12/06 12:05:46;;;;;;;8.63;5.33;;;4.80;98.80;;;;;;1858872;76;21370;-60
2023/12/06 12:08:15;;;;;;;12.58;7.10;;;4.70;98.90;;;;;;1858907;77;21156;-60
2023/12/06 12:10:45;;;;;;;12.30;7.00;;;4.80;98.90;;;;;;1858779;77;21813;-59
2023/12/06 12:13:19;;;;;;;16.95;7.80;;;4.80;99.00;;;;;;1858875;77;21418;-60
2023/12/06 12:15:59;;;;;;;10.48;6.10;;;4.80;98.90;;;;;;1858519;77;21103;-60
2023/12/06 12:18:29;;;;;;;12.95;8.65;;;4.80;98.80;;;;;;1858893;77;21704;-59
2023/12/06 12:20:58;;;;;;;9.15;5.08;;;4.90;98.80;;;;;;1858834;77;21373;-60
2023/12/06 12:23:29;;;;;;;4.45;2.98;;;4.80;98.70;;;;;;1858829;77;21271;-60
2023/12/06 12:25:57;;;;;;;10.82;5.95;;;4.90;98.80;;;;;;1858887;77;21406;-60
2023/12/06 12:28:27;;;;;;;10.15;5.53;;;4.80;98.80;;;;;;1858898;77;21172;-60
2023/12/06 12:30:59;;;;;;;11.45;6.83;;;4.80;98.80;;;;;;1859016;77;21144;-60
2023/12/06 12:33:29;;;;;;;16.60;7.25;;;4.80;98.80;;;;;;1855850;77;21192;-60
2023/12/06 12:35:59;;;;;;;15.53;8.13;;;4.80;98.90;;;;;;1858847;77;21353;-60
2023/12/06 12:38:28;;;;;;;8.35;5.03;;;4.80;98.80;;;;;;1858883;76;21156;-60
2023/12/06 12:40:57;;;;;;;7.22;4.85;;;4.90;98.80;;;;;;1858886;77;21346;-60
2023/12/06 12:43:26;;;;;;;8.83;6.03;;;4.80;98.80;;;;;;1858763;76;21316;-60
2023/12/06 12:45:56;;;;;;;11.28;6.15;;;4.90;98.80;;;;;;1858827;76;21352;-60
2023/12/06 12:48:25;;;;;;;11.33;6.30;;;4.90;98.80;;;;;;1858870;77;21295;-60
2023/12/06 12:51:12;;;;;;;10.48;5.53;;;4.90;98.80;;;;;;1858847;77;21331;-60
2023/12/06 12:53:43;;;;;;;11.38;6.28;;;4.80;98.80;;;;;;1858948;77;21229;-60
2023/12/06 12:56:14;;;;;;;15.45;7.47;;;4.90;98.80;;;;;;1858443;77;21225;-59
2023/12/06 12:58:46;;;;;;;9.68;5.08;;;4.90;98.80;;;;;;1859016;77;21429;-60